»·PEaware :: AAL6603 CYYZ-KDFW

AAL6603 :: CYYZ-KDFW

FLIGHT INFORMATION

Flight Status: Arrived
Operator:
American Airlines
More flights by this operator :: More flights under this callsign
Pilot: Richard S. (14671)
Aircraft: AIRBUS A330-200
(A332)
More flights by this aircraft type
Origin: CYYZ Toronto/Pearson Intl
Canada
Destination: KDFW Dallas-Ft Worth Intl
United States
More flights between these airports :: More routes between these airports
Route: MIXUT4 GNTRY CRL FWA TTH FAM FSM KOMMA RRNET SEEVR4
File this flight plan on PilotEdge
Remarks:
Altitude:
(Current/Filed)
40,000ft
Speed:
(Current/Filed)
400kts
Departed: 25-Nov-17 01:30 PM
Arrived: 25-Nov-17 03:34 PM
Distance/Time
Traveled:
1041nm/2:04
Distance/Time
To Go:
Arrived

Flight Plot

Page will automatically refresh every two minutes.

Flight plan parsing failed; only flown route is shown


Map Options




Map Legend


Flown Route
Filed Route
Departure Airport
Arrival Airport
Navaid (VOR, NDB)
Fix

Horizontal Profiles

Position Reports

Time Latitude Longitude Heading Altitude Ground
Speed
25-Nov-17 13:34 41.861661 -83.766503 235 39909ft 423kts
25-Nov-17 13:35 41.788160 -83.887445 235 39928ft 429kts
25-Nov-17 13:36 41.712041 -84.012221 235 39938ft 442kts
25-Nov-17 13:37 41.632975 -84.141281 235 39941ft 459kts
25-Nov-17 13:38 41.552085 -84.272722 235 39976ft 457kts
25-Nov-17 13:39 41.471287 -84.403473 235 39968ft 458kts
25-Nov-17 13:40 41.390701 -84.533322 235 39965ft 459kts
25-Nov-17 13:41 41.310508 -84.661988 234 39967ft 458kts
25-Nov-17 13:42 41.229124 -84.792119 234 39968ft 459kts
25-Nov-17 13:43 41.147737 -84.921590 234 40001ft 459kts
25-Nov-17 13:44 41.066544 -85.050202 234 39996ft 459kts
25-Nov-17 13:45 40.984990 -85.178811 235 39993ft 459kts
25-Nov-17 13:46 40.899970 -85.301170 232 39996ft 459kts
25-Nov-17 13:47 40.814414 -85.422745 232 40020ft 460kts
25-Nov-17 13:48 40.727659 -85.545726 232 40016ft 461kts
25-Nov-17 13:49 40.641307 -85.667656 231 40021ft 461kts
25-Nov-17 13:50 40.554343 -85.790046 231 40023ft 461kts
25-Nov-17 13:51 40.467237 -85.912029 231 40024ft 461kts
25-Nov-17 13:52 40.379843 -86.033919 231 39989ft 462kts
25-Nov-17 13:53 40.292926 -86.154649 231 39992ft 461kts
25-Nov-17 13:54 40.205362 -86.275790 231 39997ft 460kts
25-Nov-17 13:55 40.118096 -86.396037 231 40029ft 461kts
25-Nov-17 13:56 40.030248 -86.516605 231 40055ft 461kts
25-Nov-17 13:57 39.942699 -86.636258 232 40046ft 462kts
25-Nov-17 13:58 39.856949 -86.752978 231 40051ft 461kts
25-Nov-17 13:59 39.768810 -86.872500 231 40050ft 463kts
25-Nov-17 14:00 39.680115 -86.992322 231 40050ft 463kts
25-Nov-17 14:01 39.591160 -87.112021 231 40050ft 462kts
25-Nov-17 14:02 39.503024 -87.230153 231 40078ft 462kts
25-Nov-17 14:03 39.425557 -87.357990 238 40074ft 457kts
25-Nov-17 14:04 39.349790 -87.487852 238 40071ft 457kts
25-Nov-17 14:05 39.273801 -87.617539 238 40074ft 456kts
25-Nov-17 14:06 39.197781 -87.746863 237 40076ft 457kts
25-Nov-17 14:07 39.121319 -87.876320 237 40107ft 457kts
25-Nov-17 14:08 39.044866 -88.005228 237 40107ft 457kts
25-Nov-17 14:09 38.968170 -88.134022 237 40104ft 455kts
25-Nov-17 14:10 38.891796 -88.261755 237 40122ft 457kts
25-Nov-17 14:11 38.814817 -88.389758 237 40126ft 457kts
25-Nov-17 14:12 38.737533 -88.517993 237 40129ft 457kts
25-Nov-17 14:13 38.660301 -88.645639 237 40130ft 456kts
25-Nov-17 14:14 38.584997 -88.769742 236 40132ft 457kts
25-Nov-17 14:15 38.507735 -88.896460 236 40154ft 457kts
25-Nov-17 14:16 38.429836 -89.023710 236 40158ft 457kts
25-Nov-17 14:17 38.352087 -89.150220 236 40159ft 457kts
25-Nov-17 14:18 38.273930 -89.276903 236 40158ft 457kts
25-Nov-17 14:19 38.196069 -89.402616 236 40157ft 457kts
25-Nov-17 14:20 38.117946 -89.528265 236 40188ft 457kts
25-Nov-17 14:21 38.052416 -89.633291 236 40180ft 457kts
25-Nov-17 14:22 37.961244 -89.778965 236 40185ft 457kts
25-Nov-17 14:23 37.882893 -89.903473 236 40183ft 457kts
25-Nov-17 14:24 37.816970 -90.007759 236 40185ft 457kts
25-Nov-17 14:25 37.724534 -90.153647 236 40184ft 457kts
25-Nov-17 14:26 37.659551 -90.258113 241 40184ft 453kts
25-Nov-17 14:27 37.589980 -90.390276 240 40180ft 454kts
25-Nov-17 14:28 37.519440 -90.521840 240 40182ft 454kts
25-Nov-17 14:29 37.449827 -90.651134 240 40184ft 454kts
25-Nov-17 14:30 37.379650 -90.781087 240 40186ft 454kts
25-Nov-17 14:31 37.309224 -90.910880 240 40187ft 455kts
25-Nov-17 14:32 37.237922 -91.041773 240 40185ft 454kts
25-Nov-17 14:33 37.166623 -91.172147 240 40165ft 455kts
25-Nov-17 14:34 37.095515 -91.301677 240 40182ft 455kts
25-Nov-17 14:35 37.024799 -91.429990 240 40184ft 455kts
25-Nov-17 14:36 36.953359 -91.559124 240 40185ft 455kts
25-Nov-17 14:37 36.882328 -91.687005 239 40190ft 460kts
25-Nov-17 14:38 36.809445 -91.817609 240 40187ft 462kts
25-Nov-17 14:39 36.736060 -91.948748 240 40184ft 464kts
25-Nov-17 14:40 36.662420 -92.079827 240 40183ft 464kts
25-Nov-17 14:41 36.588415 -92.211043 240 40180ft 464kts
25-Nov-17 14:42 36.514170 -92.342182 240 40161ft 465kts
25-Nov-17 14:43 36.439938 -92.472791 240 40156ft 465kts
25-Nov-17 14:44 36.365396 -92.603449 240 40154ft 465kts
25-Nov-17 14:45 36.290903 -92.733614 240 40195ft 472kts
25-Nov-17 14:46 36.215833 -92.864227 239 40189ft 464kts
25-Nov-17 14:47 36.140949 -92.993977 239 40185ft 466kts
25-Nov-17 14:48 36.065622 -93.124033 239 40185ft 469kts
25-Nov-17 14:49 35.989899 -93.254262 239 40185ft 468kts
25-Nov-17 14:50 35.914003 -93.384295 239 40185ft 468kts
25-Nov-17 14:51 35.838703 -93.512588 239 40183ft 469kts
25-Nov-17 14:52 35.762371 -93.642371 239 40184ft 469kts
25-Nov-17 14:53 35.686239 -93.771479 239 40186ft 470kts
25-Nov-17 14:54 35.609296 -93.901359 239 40185ft 470kts
25-Nov-17 14:55 35.532307 -94.030820 239 40167ft 469kts
25-Nov-17 14:56 35.455457 -94.159578 239 40164ft 474kts
25-Nov-17 14:57 35.373996 -94.285540 228 40165ft 480kts
25-Nov-17 14:58 35.274874 -94.395332 228 40161ft 484kts
25-Nov-17 14:59 35.174267 -94.504798 228 40155ft 484kts
25-Nov-17 15:00 35.073721 -94.613752 228 40155ft 485kts
25-Nov-17 15:01 34.973130 -94.721841 227 40159ft 486kts
25-Nov-17 15:02 34.872332 -94.828847 227 40159ft 485kts
25-Nov-17 15:03 34.772470 -94.938290 229 40158ft 484kts
25-Nov-17 15:04 34.677898 -95.044930 229 38600ft 497kts
25-Nov-17 15:05 34.582629 -95.151995 229 38238ft 465kts
25-Nov-17 15:06 34.485181 -95.260661 230 36003ft 467kts
25-Nov-17 15:07 34.393656 -95.363388 230 33864ft 433kts
25-Nov-17 15:08 34.305867 -95.461199 230 31467ft 425kts
25-Nov-17 15:09 34.217417 -95.559589 229 29860ft 469kts
25-Nov-17 15:10 34.119324 -95.670099 229 27507ft 480kts
25-Nov-17 15:11 34.026543 -95.774853 228 25018ft 443kts
25-Nov-17 15:12 33.943724 -95.868032 228 22847ft 416kts
25-Nov-17 15:13 33.853745 -95.944864 218 21789ft 420kts
25-Nov-17 15:14 33.751036 -96.024316 217 19974ft 444kts
25-Nov-17 15:15 33.653493 -96.099315 216 17863ft 431kts
25-Nov-17 15:16 33.557920 -96.172555 216 15688ft 386kts
25-Nov-17 15:17 33.472176 -96.238126 216 13909ft 344kts
25-Nov-17 15:18 33.409199 -96.309675 232 12833ft 301kts
25-Nov-17 15:19 33.353436 -96.385871 232 11135ft 294kts
25-Nov-17 15:20 33.315525 -96.465573 253 10595ft 277kts
25-Nov-17 15:21 33.290260 -96.553078 258 10000ft 276kts
25-Nov-17 15:22 33.283794 -96.643769 269 8775ft 273kts
25-Nov-17 15:23 33.279554 -96.731010 267 7566ft 256kts
25-Nov-17 15:24 33.275648 -96.813348 267 6418ft 244kts
25-Nov-17 15:25 33.243841 -96.866403 188 6006ft 219kts
25-Nov-17 15:26 33.172496 -96.882900 189 5890ft 280kts
25-Nov-17 15:27 33.095958 -96.900080 189 5723ft 277kts
25-Nov-17 15:28 33.021567 -96.916658 189 5604ft 270kts
25-Nov-17 15:29 32.949990 -96.932577 189 5484ft 255kts
25-Nov-17 15:30 32.883141 -96.947404 189 5359ft 242kts
25-Nov-17 15:31 32.812700 -96.962969 189 5282ft 269kts
25-Nov-17 15:32 32.736915 -96.979735 189 5182ft 280kts
25-Nov-17 15:33 32.664360 -97.000618 217 4399ft 293kts
25-Nov-17 15:34 32.676233 -97.078664 346 3023ft 288kts
25-Nov-17 15:35 32.747489 -97.050897 23 2488ft 265kts
25-Nov-17 15:36 32.812487 -97.025181 5 2126ft 223kts
25-Nov-17 15:37 32.870631 -97.026202 0 912ft 184kts
25-Nov-17 15:38 32.902932 -97.026866 331 619ft 41kts
25-Nov-17 15:39 32.908899 -97.028292 290 619ft 6kts
25-Nov-17 15:40 32.908936 -97.028473 275 619ft 0kts
25-Nov-17 15:41 32.908936 -97.028473 275 619ft 0kts
25-Nov-17 15:42 32.908936 -97.028473 275 619ft 0kts
25-Nov-17 15:43 32.908964 -97.030798 270 619ft 18kts
25-Nov-17 15:44 32.909021 -97.038034 269 640ft 14kts
25-Nov-17 15:45 32.909034 -97.045142 271 619ft 25kts
25-Nov-17 15:46 32.905237 -97.047626 180 619ft 26kts
25-Nov-17 15:47 32.896921 -97.047680 175 619ft 19kts
25-Nov-17 15:48 32.896603 -97.045749 88 619ft 0kts
25-Nov-17 15:49 32.896603 -97.045749 88 619ft 0kts
25-Nov-17 15:50 32.896603 -97.045749 88 619ft 0kts
25-Nov-17 15:51 32.896603 -97.045749 88 619ft 0kts
25-Nov-17 15:52 32.896603 -97.045749 88 619ft 0kts
25-Nov-17 15:53 32.896603 -97.045749 88 619ft 0kts
25-Nov-17 15:54 32.896603 -97.045749 88 619ft 0kts

Navigation Log

Ident Type
Flight plan parsing failed, navigation log unavailable